Latest  Newer  Older  Last 2 hours slideshow  Last 24 hours slideshow  Refresh every 5 minutes 
Current image  Latest image  Rain/snow radar  Cloud coverage sat images 

All time is UTC (add 2 hours to UTC in wintertime, 3 hours to UTC in DST for Latvia local time)

2021/01/27 06:20 EVRA 270620Z 32008KT 240V340 4300 SNRA OVC004 01/00 Q0997 R36/490393 NOSIG
2021/01/27 06:20 EVLA 270620Z AUTO 31011KT 280V340 9999 -RA FEW010/// SCT012/// OVC016/// 02/00 Q1001
2021/01/27 06:20 EVVA 270620Z AUTO 34015KT 9999 -RA SCT009 BKN013 OVC030 02/02 Q1000
2021/01/27 06:20 EYKA 270620Z 27009KT 2400 -SNRA OVC004 00/M01 Q0999 R08/490493
2021/01/27 06:20 EYPA 270620Z 31008G20KT 270V020 9999 BKN014 OVC048 02/M00 Q1002
2021/01/27 06:20 EYSA 270620Z 28013KT 3800 SN BKN005 OVC013 00/M00 Q0998 R14L/490291 R14R/490291 YLO NOSIG
2021/01/27 06:20 EYVI 270620Z 26009KT 2100 -SN OVC003 M00/M01 Q0998 R19/5/0492 NOSIG
2021/01/27 06:20 EEKA 270620Z 34014KT 3900 SN BKN003 OVC006 00/M00 Q0997
2021/01/27 06:20 EEKE 270620Z 34007KT 300V010 4000 SN BKN005 OVC025 00/00 Q0998 R17/590294

2021/01/27 06:20 EETN 270620Z 08003KT 3300 BR FEW010 OVC043 01/00 Q0996 R08/690295 NOSIG
2021/01/27 06:20 EETU 270620Z AUTO 02002KT 1600 -DZ OVC002/// 01/00 Q0995
   RIGA AIRPORT     EVRA               56 55N  023 58E   10   X     T          6 LV
   LIEPAJA INTL     EVLA        26406  56 31N  021 06E    4   X                8 LV
   VENTPILS         EVVA               57 21N  021 33E    6   X                8 LV
   KAUNAS           EYKA               54 54N  023 55E   77   X     T          6 LT
   PALANGA INTL     EYPA               55 55N  021 03E   10   X                6 LT
   SIAULIAI INTL    EYSA               55 54N  023 24E  135   X     T          6 LT
   VILNIUS INTL     EYVI        26730  54 38N  025 17E  197   X     T          6 LT
   KARDLA           EEKA        26116  58 59N  022 50E    4   X                8 EE
   KURESSAARE       EEKE               58 14N  022 31E    4   X                8 EE
   PARNU            EEPU               58 25N  024 28E   14   X                8 EE
   TALLINN          EETN        26038  59 24N  024 49E   40   X     T          8 EE
   TARTU            EETU               58 19N  026 41E   67   X                8 EE